Time;durP1;ratioP1;P1;durP2;ratioP2;P2;SDS_P1;SDS_P2;PMS_P1;PMS_P2;Temp;Humidity;BMP_temperature;BMP_pressure;BME280_temperature;BME280_humidity;BME280_pressure;Samples;Min_cycle;Max_cycle;Signal;HPM_P1;HPM_P2
2021/05/07 00:00:59;;;;;;;0.80;0.80;;;13.70;57.10;;;;;;5040469;28;20189;-44
2021/05/07 00:03:24;;;;;;;0.97;0.90;;;13.70;57.10;;;;;;5044424;28;20970;-43
2021/05/07 00:05:55;;;;;;;0.80;0.80;;;13.70;57.00;;;;;;5041094;28;20440;-43
2021/05/07 00:08:41;;;;;;;1.87;1.77;;;13.80;57.30;;;;;;5039704;28;20284;-43
2021/05/07 00:11:10;;;;;;;0.80;0.80;;;13.80;56.90;;;;;;5048577;28;20438;-43
2021/05/07 00:13:37;;;;;;;1.10;1.03;;;13.80;56.90;;;;;;5044243;28;20747;-43
2021/05/07 00:16:03;;;;;;;0.90;0.90;;;14.00;56.90;;;;;;5039534;28;20837;-44
2021/05/07 00:18:29;;;;;;;0.87;0.80;;;14.00;56.70;;;;;;5036819;28;20557;-43
2021/05/07 00:20:55;;;;;;;1.20;0.97;;;14.10;56.90;;;;;;5036470;28;20451;-43
2021/05/07 00:23:21;;;;;;;1.20;1.20;;;14.20;56.70;;;;;;5043365;28;20447;-43
2021/05/07 00:25:49;;;;;;;1.67;1.00;;;14.30;56.60;;;;;;5036895;28;20971;-43
2021/05/07 00:28:16;;;;;;;1.53;1.17;;;14.30;56.50;;;;;;5036530;28;20201;-43
2021/05/07 00:30:42;;;;;;;1.10;0.83;;;14.30;56.50;;;;;;5037578;28;20450;-43
2021/05/07 00:33:09;;;;;;;0.80;0.80;;;14.20;56.40;;;;;;5037102;28;20454;-43
2021/05/07 00:35:35;;;;;;;0.87;0.87;;;14.10;56.90;;;;;;5042481;28;20201;-43
2021/05/07 00:38:01;;;;;;;0.90;0.90;;;14.00;56.90;;;;;;5033386;28;20493;-45
2021/05/07 00:40:27;;;;;;;0.90;0.90;;;14.20;56.70;;;;;;5034178;28;20845;-43
2021/05/07 00:42:53;;;;;;;1.73;0.90;;;14.00;56.50;;;;;;5039424;28;20444;-42
2021/05/07 00:45:19;;;;;;;0.80;0.73;;;13.90;56.60;;;;;;5033281;28;20566;-42
2021/05/07 00:47:49;;;;;;;1.17;0.80;;;13.70;56.80;;;;;;5037684;28;20482;-42
2021/05/07 00:50:17;;;;;;;0.80;0.80;;;13.60;56.90;;;;;;5042641;28;20243;-42
2021/05/07 00:52:43;;;;;;;0.93;0.83;;;13.60;56.90;;;;;;5033773;28;20556;-43
2021/05/07 00:55:09;;;;;;;0.80;0.80;;;13.60;57.50;;;;;;5039125;28;20542;-45
2021/05/07 00:57:36;;;;;;;0.70;0.70;;;13.70;57.00;;;;;;5044370;28;20483;-43
2021/05/07 01:00:05;;;;;;;0.70;0.70;;;13.70;56.80;;;;;;5032625;28;20481;-43
2021/05/07 01:02:31;;;;;;;1.33;0.80;;;13.50;56.90;;;;;;5037423;28;20441;-43
2021/05/07 01:04:56;;;;;;;0.77;0.77;;;13.50;57.00;;;;;;5038163;28;20879;-43
2021/05/07 01:07:22;;;;;;;1.40;0.70;;;13.40;56.80;;;;;;5035506;28;20199;-42
2021/05/07 01:09:51;;;;;;;1.17;0.90;;;13.00;56.90;;;;;;5033946;28;20189;-43
2021/05/07 01:12:18;;;;;;;0.80;0.80;;;13.10;57.10;;;;;;5036543;28;20196;-43
2021/05/07 01:15:09;;;;;;;0.67;0.67;;;13.10;57.10;;;;;;5033678;28;20435;-44
2021/05/07 01:17:46;;;;;;;0.97;0.73;;;13.20;57.00;;;;;;5036457;28;20862;-43
2021/05/07 01:20:18;;;;;;;1.33;0.93;;;13.20;57.00;;;;;;5039788;28;20806;-42
2021/05/07 01:22:46;;;;;;;1.77;0.97;;;13.20;57.10;;;;;;5032509;28;20458;-42
2021/05/07 01:25:16;;;;;;;1.03;0.60;;;13.10;57.20;;;;;;5034147;28;20443;-43
2021/05/07 01:27:44;;;;;;;0.97;0.80;;;13.10;57.40;;;;;;5037808;28;20461;-42
2021/05/07 01:30:13;;;;;;;1.13;1.03;;;13.30;57.90;;;;;;5040679;28;20446;-42
2021/05/07 01:32:39;;;;;;;0.90;0.90;;;13.30;57.10;;;;;;5040117;28;20438;-42
2021/05/07 01:35:18;;;;;;;1.83;1.00;;;13.10;57.30;;;;;;5036098;28;20450;-43
2021/05/07 01:37:45;;;;;;;0.97;0.90;;;12.80;57.70;;;;;;5035964;28;20787;-42
2021/05/07 01:40:20;;;;;;;1.40;0.90;;;12.90;58.70;;;;;;5039713;28;20461;-43
2021/05/07 01:42:46;;;;;;;1.07;1.00;;;12.90;59.10;;;;;;5038132;28;21350;-42
2021/05/07 01:45:14;;;;;;;1.00;0.70;;;13.10;59.40;;;;;;5034721;28;20977;-42
2021/05/07 01:47:41;;;;;;;0.80;0.70;;;13.10;58.60;;;;;;5033576;28;20454;-42
2021/05/07 01:50:08;;;;;;;0.90;0.90;;;13.10;58.70;;;;;;5037118;28;20481;-43
2021/05/07 01:52:34;;;;;;;1.20;1.10;;;13.20;59.00;;;;;;5037353;28;20971;-43
2021/05/07 01:55:03;;;;;;;0.93;0.93;;;13.00;59.40;;;;;;5033811;28;20526;-42
2021/05/07 01:57:30;;;;;;;0.87;0.87;;;13.00;59.70;;;;;;5032709;28;20538;-45
2021/05/07 01:59:57;;;;;;;2.00;0.90;;;13.00;59.80;;;;;;5035937;28;20455;-43
2021/05/07 02:02:23;;;;;;;1.23;1.00;;;13.00;59.70;;;;;;5036841;28;20546;-42
2021/05/07 02:04:48;;;;;;;1.13;0.70;;;13.10;59.80;;;;;;5042700;28;20813;-42
2021/05/07 02:07:14;;;;;;;1.63;0.97;;;13.00;59.60;;;;;;5037319;28;20435;-42
2021/05/07 02:09:40;;;;;;;1.20;1.10;;;12.90;60.40;;;;;;5033174;28;20262;-42
2021/05/07 02:12:06;;;;;;;1.20;1.10;;;12.80;60.30;;;;;;5034874;28;20443;-44
2021/05/07 02:14:32;;;;;;;0.70;0.70;;;12.80;60.40;;;;;;5037186;28;20201;-42
2021/05/07 02:17:00;;;;;;;0.90;0.90;;;12.60;60.70;;;;;;5032565;28;20500;-43
2021/05/07 02:19:25;;;;;;;0.93;0.83;;;12.80;61.00;;;;;;5035543;28;20243;-42
2021/05/07 02:21:51;;;;;;;1.03;0.80;;;12.90;60.40;;;;;;5036635;28;20474;-42
2021/05/07 02:24:16;;;;;;;1.37;1.17;;;13.00;60.00;;;;;;5037235;28;20280;-42
2021/05/07 02:26:42;;;;;;;1.53;0.90;;;13.10;60.00;;;;;;5038865;28;20268;-42
2021/05/07 02:29:08;;;;;;;1.43;1.07;;;13.10;59.70;;;;;;5036206;28;20201;-42
2021/05/07 02:31:33;;;;;;;1.10;1.00;;;13.10;59.50;;;;;;5036750;28;20280;-42
2021/05/07 02:33:59;;;;;;;0.67;0.60;;;12.80;59.50;;;;;;5040407;28;20193;-42
2021/05/07 02:36:25;;;;;;;0.97;0.87;;;12.80;60.10;;;;;;5046199;28;20197;-42
2021/05/07 02:38:50;;;;;;;0.70;0.70;;;12.80;60.20;;;;;;5038671;28;20675;-42
2021/05/07 02:41:16;;;;;;;1.20;1.10;;;12.80;60.20;;;;;;5036688;28;20688;-42
2021/05/07 02:43:42;;;;;;;0.97;0.93;;;12.80;60.10;;;;;;5044751;28;20203;-42
2021/05/07 02:46:07;;;;;;;1.00;0.87;;;12.90;60.00;;;;;;5046235;28;20653;-42
2021/05/07 02:48:33;;;;;;;1.47;1.03;;;13.00;59.70;;;;;;5042110;28;20654;-42
2021/05/07 02:50:58;;;;;;;2.40;0.80;;;12.90;59.60;;;;;;5039609;28;20192;-43
2021/05/07 02:53:24;;;;;;;1.10;1.00;;;12.90;59.60;;;;;;5042384;28;20247;-44
2021/05/07 02:55:50;;;;;;;1.10;0.90;;;13.10;59.50;;;;;;5045109;28;20184;-43
2021/05/07 02:58:15;;;;;;;1.30;1.20;;;13.10;59.30;;;;;;5040928;28;20236;-43
2021/05/07 03:00:41;;;;;;;1.20;1.10;;;12.90;59.10;;;;;;5036399;28;20197;-44
2021/05/07 03:03:06;;;;;;;1.30;1.17;;;13.00;59.30;;;;;;5041273;28;20624;-44
2021/05/07 03:05:32;;;;;;;0.97;0.97;;;13.00;59.30;;;;;;5038485;28;21918;-43
2021/05/07 03:07:58;;;;;;;1.03;1.00;;;13.00;59.10;;;;;;5036611;28;20193;-44
2021/05/07 03:10:23;;;;;;;1.23;0.90;;;13.10;59.30;;;;;;5040888;28;20189;-43
2021/05/07 03:12:49;;;;;;;1.27;1.17;;;13.10;59.10;;;;;;5043506;28;20184;-42
2021/05/07 03:15:16;;;;;;;1.07;0.97;;;13.00;58.80;;;;;;5035285;28;20227;-43
2021/05/07 03:17:41;;;;;;;1.13;0.97;;;13.00;59.10;;;;;;5038306;28;20331;-42
2021/05/07 03:20:08;;;;;;;2.10;1.07;;;13.00;59.20;;;;;;5045427;28;20526;-43
2021/05/07 03:22:33;;;;;;;1.20;0.90;;;13.00;59.30;;;;;;5047503;28;20199;-43
2021/05/07 03:24:59;;;;;;;1.30;1.10;;;13.00;59.40;;;;;;5034455;28;20443;-44
2021/05/07 03:27:25;;;;;;;1.33;1.23;;;12.90;59.50;;;;;;5042530;28;20200;-43
2021/05/07 03:29:50;;;;;;;1.10;1.00;;;13.00;59.50;;;;;;5043287;28;20511;-45
2021/05/07 03:32:16;;;;;;;0.93;0.90;;;12.90;59.50;;;;;;5043799;28;20284;-43
2021/05/07 03:34:41;;;;;;;1.20;1.10;;;13.00;59.50;;;;;;5038932;28;20201;-44
2021/05/07 03:37:07;;;;;;;2.77;1.33;;;13.00;59.60;;;;;;5050363;28;20196;-43
2021/05/07 03:39:33;;;;;;;1.30;1.20;;;12.80;59.90;;;;;;5047043;28;20208;-43
2021/05/07 03:41:58;;;;;;;1.33;1.10;;;12.70;60.60;;;;;;5039604;28;20192;-45
2021/05/07 03:44:24;;;;;;;1.20;1.10;;;12.70;60.60;;;;;;5047587;28;20657;-44
2021/05/07 03:46:50;;;;;;;1.17;1.07;;;12.70;61.10;;;;;;5042102;28;20242;-42
2021/05/07 03:49:15;;;;;;;1.50;1.40;;;12.70;61.30;;;;;;5048461;28;20236;-43
2021/05/07 03:51:41;;;;;;;1.30;1.20;;;12.60;61.60;;;;;;5041805;28;20611;-44
2021/05/07 03:54:06;;;;;;;1.97;1.50;;;12.80;61.50;;;;;;5043481;28;20213;-44
2021/05/07 03:56:32;;;;;;;1.50;1.33;;;12.70;61.40;;;;;;5038103;28;20194;-43
2021/05/07 03:58:58;;;;;;;1.70;1.60;;;12.70;61.60;;;;;;5040682;28;20266;-44
2021/05/07 04:01:24;;;;;;;2.37;1.40;;;12.70;62.00;;;;;;5039291;28;20197;-44
2021/05/07 04:03:51;;;;;;;1.87;1.77;;;12.70;62.10;;;;;;5043779;28;20189;-43
2021/05/07 04:06:19;;;;;;;2.20;1.70;;;12.70;61.80;;;;;;5043841;28;20448;-43
2021/05/07 04:08:53;;;;;;;2.20;1.90;;;12.80;62.00;;;;;;5036317;28;20920;-43
2021/05/07 04:11:29;;;;;;;3.53;2.33;;;12.60;62.30;;;;;;5040806;28;20440;-42
2021/05/07 04:13:54;;;;;;;2.00;1.83;;;12.60;62.70;;;;;;5034573;28;20444;-45
2021/05/07 04:16:20;;;;;;;3.93;1.97;;;12.60;63.00;;;;;;5046045;28;20473;-43
2021/05/07 04:18:45;;;;;;;2.40;1.90;;;12.70;62.90;;;;;;5041891;28;20232;-43
2021/05/07 04:21:11;;;;;;;2.40;2.20;;;12.50;62.60;;;;;;5045846;28;20246;-43
2021/05/07 04:23:36;;;;;;;1.93;1.73;;;12.60;63.20;;;;;;5043965;28;20207;-43
2021/05/07 04:26:02;;;;;;;1.60;1.50;;;12.50;63.10;;;;;;5044481;28;20203;-43
2021/05/07 04:28:28;;;;;;;3.07;2.03;;;12.50;63.30;;;;;;5044573;28;20968;-42
2021/05/07 04:30:54;;;;;;;2.07;1.87;;;12.60;63.60;;;;;;5043238;28;20676;-43
2021/05/07 04:33:19;;;;;;;2.70;2.00;;;12.50;63.30;;;;;;5035689;28;20419;-43
2021/05/07 04:35:45;;;;;;;2.40;2.20;;;12.60;63.40;;;;;;5038953;28;20193;-44
2021/05/07 04:38:10;;;;;;;2.47;2.27;;;12.70;63.10;;;;;;5037883;28;20225;-43
2021/05/07 04:40:36;;;;;;;3.10;2.10;;;12.90;62.80;;;;;;5038600;28;20558;-43
2021/05/07 04:43:03;;;;;;;2.13;2.03;;;12.90;62.70;;;;;;5046378;28;20185;-42
2021/05/07 04:45:30;;;;;;;3.43;2.27;;;12.90;62.70;;;;;;5043354;28;20445;-43
2021/05/07 04:47:56;;;;;;;6.27;3.10;;;13.00;62.80;;;;;;5038749;28;20444;-43
2021/05/07 04:50:22;;;;;;;2.93;2.73;;;13.00;63.10;;;;;;5046291;28;20445;-42
2021/05/07 04:52:48;;;;;;;2.50;2.30;;;13.00;63.00;;;;;;5050322;28;20439;-43
2021/05/07 04:55:14;;;;;;;3.30;2.70;;;13.10;62.90;;;;;;5045975;28;20201;-43
2021/05/07 04:57:40;;;;;;;3.60;3.30;;;13.10;62.80;;;;;;5045807;28;20251;-43
2021/05/07 05:00:06;;;;;;;3.20;3.00;;;13.00;63.10;;;;;;5046542;28;20455;-44
2021/05/07 05:02:31;;;;;;;3.07;2.80;;;12.70;62.80;;;;;;5044996;28;20539;-42
2021/05/07 05:04:57;;;;;;;3.37;3.07;;;12.60;62.80;;;;;;5037281;28;20440;-43
2021/05/07 05:07:23;;;;;;;6.10;2.60;;;12.50;63.40;;;;;;5042598;28;20196;-43
2021/05/07 05:09:48;;;;;;;2.93;2.63;;;12.50;63.20;;;;;;5045368;28;20188;-43
2021/05/07 05:12:14;;;;;;;2.90;2.60;;;12.60;63.10;;;;;;5036400;28;20189;-42
2021/05/07 05:14:40;;;;;;;2.17;2.07;;;12.50;62.60;;;;;;5046105;28;20196;-43
2021/05/07 05:17:05;;;;;;;2.20;2.00;;;12.40;61.30;;;;;;5033952;28;20294;-43
2021/05/07 05:19:31;;;;;;;3.00;2.17;;;12.20;61.60;;;;;;5048909;28;20224;-42
2021/05/07 05:21:57;;;;;;;2.40;2.20;;;12.00;62.40;;;;;;5031867;28;20197;-42
2021/05/07 05:24:22;;;;;;;2.00;1.90;;;12.10;62.70;;;;;;5036414;28;20193;-42
2021/05/07 05:26:48;;;;;;;4.43;2.10;;;12.10;62.80;;;;;;5037557;28;20251;-42
2021/05/07 05:29:14;;;;;;;2.50;2.30;;;12.20;62.50;;;;;;5034203;28;20191;-42
2021/05/07 05:31:40;;;;;;;2.83;2.60;;;12.50;62.40;;;;;;5033827;28;20680;-42
2021/05/07 05:34:06;;;;;;;4.30;2.57;;;12.70;62.00;;;;;;5038419;28;20446;-42
2021/05/07 05:36:31;;;;;;;3.47;2.97;;;12.80;61.50;;;;;;5039992;28;20732;-42
2021/05/07 05:38:57;;;;;;;3.43;2.83;;;12.80;61.10;;;;;;5048087;28;20224;-42
2021/05/07 05:41:22;;;;;;;4.83;2.90;;;12.90;60.80;;;;;;5033181;28;20220;-42
2021/05/07 05:43:48;;;;;;;2.90;2.63;;;12.90;60.40;;;;;;5049649;28;20185;-42
2021/05/07 05:46:15;;;;;;;3.73;2.63;;;13.10;60.50;;;;;;5047433;28;20656;-43
2021/05/07 05:48:41;;;;;;;3.50;2.50;;;13.10;60.00;;;;;;5049881;28;20829;-42
2021/05/07 05:51:06;;;;;;;3.97;2.73;;;13.10;59.60;;;;;;5037995;28;20454;-42
2021/05/07 05:53:32;;;;;;;2.80;2.57;;;12.90;59.50;;;;;;5035402;28;20193;-42
2021/05/07 05:55:58;;;;;;;3.17;2.97;;;12.90;59.30;;;;;;5040273;28;20528;-42
2021/05/07 05:58:24;;;;;;;2.93;2.53;;;12.60;59.90;;;;;;5041991;28;20704;-41
2021/05/07 06:00:49;;;;;;;4.07;3.40;;;12.50;60.10;;;;;;5046221;28;20446;-42
2021/05/07 06:03:15;;;;;;;3.77;3.20;;;12.20;60.10;;;;;;5042991;28;20197;-42
2021/05/07 06:05:40;;;;;;;3.73;3.03;;;12.40;60.10;;;;;;5048657;28;20189;-41
2021/05/07 06:08:06;;;;;;;3.60;3.30;;;12.50;60.20;;;;;;5042733;28;20220;-42
2021/05/07 06:10:31;;;;;;;3.90;3.50;;;12.60;60.20;;;;;;5045549;28;20562;-42
2021/05/07 06:12:57;;;;;;;4.00;3.60;;;12.60;60.50;;;;;;5049821;28;20188;-42
2021/05/07 06:15:23;;;;;;;3.60;3.30;;;12.60;59.90;;;;;;5049544;28;20267;-42
2021/05/07 06:17:48;;;;;;;4.60;3.70;;;12.70;59.70;;;;;;5045203;28;20302;-42
2021/05/07 06:20:16;;;;;;;3.10;2.80;;;12.70;59.60;;;;;;5050700;28;20702;-43
2021/05/07 06:22:43;;;;;;;5.30;3.40;;;12.70;59.20;;;;;;5040652;28;20567;-42
2021/05/07 06:25:12;;;;;;;3.90;3.23;;;12.90;59.40;;;;;;5051736;28;20471;-42
2021/05/07 06:27:37;;;;;;;3.83;3.00;;;13.00;59.20;;;;;;5053761;28;20914;-42
2021/05/07 06:30:08;;;;;;;3.23;2.93;;;13.00;59.00;;;;;;5049628;28;20434;-42
2021/05/07 06:32:34;;;;;;;3.77;3.33;;;13.00;59.40;;;;;;5051554;28;20272;-42
2021/05/07 06:35:00;;;;;;;3.30;2.87;;;12.90;59.40;;;;;;5052187;28;20525;-42
2021/05/07 06:37:25;;;;;;;6.37;3.60;;;12.90;59.70;;;;;;5052278;28;20199;-42
2021/05/07 06:39:52;;;;;;;3.90;3.60;;;13.10;59.50;;;;;;5047175;28;21335;-42
2021/05/07 06:42:18;;;;;;;5.50;3.43;;;13.20;59.30;;;;;;5044521;28;20275;-42
2021/05/07 06:44:44;;;;;;;3.70;3.40;;;13.10;58.90;;;;;;5042867;28;20436;-42
2021/05/07 06:47:09;;;;;;;6.63;3.97;;;13.30;59.10;;;;;;5052021;28;20455;-42
2021/05/07 06:49:35;;;;;;;3.70;3.40;;;13.20;59.40;;;;;;5041786;28;20185;-42
2021/05/07 06:52:00;;;;;;;3.93;3.63;;;13.40;59.00;;;;;;5043928;28;20650;-42
2021/05/07 06:54:27;;;;;;;4.20;3.80;;;13.30;58.90;;;;;;5052071;28;20212;-42
2021/05/07 06:56:57;;;;;;;4.23;3.93;;;13.40;58.90;;;;;;5052482;28;20285;-42
2021/05/07 06:59:26;;;;;;;5.43;4.20;;;13.40;58.80;;;;;;5050716;28;20529;-42
2021/05/07 07:01:51;;;;;;;4.40;4.00;;;13.40;58.40;;;;;;5046078;28;20775;-42
2021/05/07 07:04:17;;;;;;;6.33;4.73;;;13.40;58.40;;;;;;5053967;28;20501;-42
2021/05/07 07:06:43;;;;;;;5.70;5.20;;;13.50;58.40;;;;;;5056011;28;20191;-42
2021/05/07 07:09:09;;;;;;;6.50;4.43;;;13.50;58.10;;;;;;5060832;28;20283;-42
2021/05/07 07:11:35;;;;;;;5.20;4.80;;;13.60;58.10;;;;;;5050199;28;20511;-42
2021/05/07 07:14:00;;;;;;;5.83;4.43;;;13.50;58.10;;;;;;5042086;28;20185;-42
2021/05/07 07:16:28;;;;;;;5.30;4.80;;;13.40;58.40;;;;;;5053767;28;20325;-44
2021/05/07 07:18:53;;;;;;;6.10;5.50;;;13.40;58.60;;;;;;5050001;28;20221;-42
2021/05/07 07:21:19;;;;;;;5.17;4.77;;;13.40;58.70;;;;;;5038761;28;20486;-41
2021/05/07 07:23:45;;;;;;;5.07;4.57;;;13.30;59.00;;;;;;5047303;28;20254;-41
2021/05/07 07:26:10;;;;;;;5.37;4.90;;;13.40;59.00;;;;;;5043360;28;20454;-41
2021/05/07 07:28:37;;;;;;;6.40;5.73;;;13.50;58.80;;;;;;5041232;28;20262;-41
2021/05/07 07:31:03;;;;;;;6.03;5.40;;;13.30;58.10;;;;;;5042870;28;20197;-42
2021/05/07 07:33:29;;;;;;;6.10;5.47;;;13.10;58.20;;;;;;5045957;28;20492;-42
2021/05/07 07:38:48;;;;;;;6.73;6.00;;;13.00;58.30;;;;;;5024676;23;20280;-42
2021/05/07 07:41:14;;;;;;;8.50;6.73;;;12.90;58.70;;;;;;5012238;28;20471;-42
2021/05/07 07:43:39;;;;;;;5.30;4.80;;;12.90;59.00;;;;;;5012913;28;20206;-43
2021/05/07 07:46:05;;;;;;;6.07;5.57;;;13.10;59.30;;;;;;5011200;28;20442;-42
2021/05/07 07:48:30;;;;;;;5.70;5.10;;;13.20;59.10;;;;;;5009515;28;20268;-40
2021/05/07 07:50:56;;;;;;;5.83;4.87;;;13.20;58.20;;;;;;5012000;28;20186;-40
2021/05/07 07:53:22;;;;;;;5.10;4.67;;;13.20;58.50;;;;;;5010900;28;20285;-41
2021/05/07 07:55:48;;;;;;;6.10;5.50;;;13.00;58.60;;;;;;5012221;28;20197;-40
2021/05/07 07:58:14;;;;;;;5.70;5.20;;;13.00;58.60;;;;;;5002525;28;20587;-41
2021/05/07 08:00:39;;;;;;;5.37;4.87;;;12.90;58.40;;;;;;5001986;28;20430;-40
2021/05/07 08:03:05;;;;;;;8.87;7.97;;;13.00;58.60;;;;;;5004990;28;20255;-42
2021/05/07 08:05:31;;;;;;;6.60;6.00;;;13.10;59.00;;;;;;5002224;28;20210;-40
2021/05/07 08:07:57;;;;;;;5.57;5.10;;;13.30;59.10;;;;;;5011833;28;20201;-40
2021/05/07 08:10:23;;;;;;;5.50;5.00;;;13.40;58.60;;;;;;5011628;28;20201;-43
2021/05/07 08:12:49;;;;;;;5.60;5.03;;;13.30;58.30;;;;;;5010870;28;20792;-40
2021/05/07 08:15:15;;;;;;;5.80;5.23;;;13.20;57.40;;;;;;5011324;28;20528;-41
2021/05/07 08:17:40;;;;;;;5.40;4.63;;;13.00;57.30;;;;;;5008953;28;20218;-40
2021/05/07 08:20:07;;;;;;;6.07;5.00;;;12.80;57.70;;;;;;5002071;28;20706;-40
2021/05/07 08:22:33;;;;;;;6.73;5.43;;;13.00;58.90;;;;;;5008515;28;20928;-40
2021/05/07 08:25:00;;;;;;;6.10;5.50;;;13.10;58.40;;;;;;5017075;28;20440;-40
2021/05/07 08:27:26;;;;;;;6.20;5.60;;;13.40;58.60;;;;;;5008548;28;20436;-40
2021/05/07 08:29:52;;;;;;;6.60;5.77;;;13.50;58.20;;;;;;5005679;28;20911;-41
2021/05/07 08:32:17;;;;;;;7.83;5.47;;;13.70;57.90;;;;;;5010993;28;20445;-41
2021/05/07 08:34:44;;;;;;;7.13;6.20;;;14.00;56.90;;;;;;5014122;28;20247;-44
2021/05/07 08:37:11;;;;;;;5.40;4.90;;;14.10;56.70;;;;;;5007547;28;20719;-42
2021/05/07 08:39:37;;;;;;;6.60;5.03;;;14.20;56.50;;;;;;5003504;28;20484;-42
2021/05/07 08:42:08;;;;;;;5.73;5.20;;;14.20;54.90;;;;;;5012363;28;20455;-42
2021/05/07 08:44:34;;;;;;;5.97;4.50;;;14.20;55.10;;;;;;5012501;28;20443;-42
2021/05/07 08:47:01;;;;;;;5.70;5.20;;;14.20;54.20;;;;;;5009685;28;20448;-42
2021/05/07 08:49:27;;;;;;;5.90;5.40;;;14.30;54.80;;;;;;5010499;28;20186;-42
2021/05/07 08:51:53;;;;;;;6.60;5.00;;;14.40;55.60;;;;;;5011166;28;20437;-42
2021/05/07 08:54:20;;;;;;;5.83;5.33;;;14.90;56.10;;;;;;5011598;28;20437;-42
2021/05/07 08:56:45;;;;;;;5.70;5.10;;;15.00;54.50;;;;;;5000682;28;20739;-41
2021/05/07 08:59:11;;;;;;;7.10;6.50;;;15.30;56.00;;;;;;5011442;28;20488;-42
2021/05/07 09:01:40;;;;;;;9.63;5.67;;;15.70;56.40;;;;;;4998392;28;20191;-42
2021/05/07 09:04:14;;;;;;;5.77;5.27;;;15.90;54.50;;;;;;4995158;28;20205;-42
2021/05/07 09:06:44;;;;;;;6.80;5.40;;;16.00;53.30;;;;;;5010454;28;20991;-42
2021/05/07 09:09:30;;;;;;;5.30;4.83;;;16.20;54.30;;;;;;5011056;28;20455;-42
2021/05/07 09:11:58;;;;;;;4.73;4.33;;;16.40;50.90;;;;;;5008235;28;20451;-42
2021/05/07 09:14:25;;;;;;;4.30;4.00;;;16.40;49.20;;;;;;5016401;28;20439;-42
2021/05/07 09:17:00;;;;;;;5.13;4.60;;;16.20;47.80;;;;;;5008468;28;20441;-42
2021/05/07 09:19:31;;;;;;;5.20;4.57;;;16.20;48.10;;;;;;5002548;28;20490;-42
2021/05/07 09:21:58;;;;;;;5.70;4.23;;;16.00;47.90;;;;;;5011512;28;20559;-43
2021/05/07 09:25:04;;;;;;;5.50;4.50;;;16.00;48.00;;;;;;5017955;28;20534;-42
2021/05/07 09:27:30;;;;;;;5.03;4.03;;;16.20;47.40;;;;;;5011992;28;20452;-43
2021/05/07 09:29:56;;;;;;;5.03;4.53;;;16.30;46.60;;;;;;5006571;28;20455;-43
2021/05/07 09:32:33;;;;;;;7.40;4.77;;;16.50;46.10;;;;;;5009283;28;21809;-42
2021/05/07 09:35:07;;;;;;;7.20;4.83;;;16.40;44.00;;;;;;5010145;28;20281;-42
2021/05/07 09:37:32;;;;;;;4.70;4.17;;;16.00;44.90;;;;;;5009595;28;20465;-42
2021/05/07 09:40:12;;;;;;;5.03;4.53;;;15.60;45.50;;;;;;5008915;28;20448;-42
2021/05/07 09:42:38;;;;;;;4.57;4.23;;;15.30;46.70;;;;;;5009415;28;20644;-42
2021/05/07 09:45:04;;;;;;;11.80;4.20;;;15.50;48.50;;;;;;5015772;28;20451;-43
2021/05/07 09:47:31;;;;;;;5.10;4.60;;;16.00;48.90;;;;;;5006122;28;20617;-43
2021/05/07 09:50:07;;;;;;;7.43;4.60;;;16.30;47.80;;;;;;5009930;28;20503;-42
2021/05/07 09:52:33;;;;;;;5.40;4.63;;;16.70;47.20;;;;;;5013567;28;20487;-42
2021/05/07 09:54:58;;;;;;;4.57;4.27;;;16.60;44.60;;;;;;5012501;28;20464;-42
2021/05/07 09:57:24;;;;;;;4.40;4.00;;;16.40;43.90;;;;;;5000728;28;20664;-42
2021/05/07 09:59:51;;;;;;;4.93;4.53;;;16.20;43.30;;;;;;5011165;28;20193;-42
2021/05/07 10:02:17;;;;;;;4.77;4.37;;;16.20;43.80;;;;;;5011659;28;20544;-42
2021/05/07 10:04:43;;;;;;;5.43;4.07;;;16.20;44.10;;;;;;5011720;28;20560;-42
2021/05/07 10:07:09;;;;;;;4.10;3.80;;;16.20;43.00;;;;;;5011207;28;20531;-42
2021/05/07 10:09:36;;;;;;;3.87;3.57;;;16.30;43.30;;;;;;5009787;28;20444;-42
2021/05/07 10:12:06;;;;;;;4.50;4.10;;;16.40;43.90;;;;;;5011164;28;20844;-42
2021/05/07 10:14:32;;;;;;;3.77;3.47;;;16.40;44.20;;;;;;5014720;28;20444;-43
2021/05/07 10:17:09;;;;;;;4.00;3.60;;;16.60;43.60;;;;;;5010563;28;20436;-42
2021/05/07 10:19:44;;;;;;;3.83;3.53;;;16.80;42.60;;;;;;5008690;28;20499;-42
2021/05/07 10:22:11;;;;;;;6.80;2.67;;;17.10;41.30;;;;;;5006274;28;20447;-43
2021/05/07 10:24:39;;;;;;;5.43;3.50;;;17.10;40.00;;;;;;5007089;28;20428;-42
2021/05/07 10:27:23;;;;;;;4.37;3.27;;;17.10;39.50;;;;;;5014453;28;20480;-47
2021/05/07 10:29:57;;;;;;;4.67;3.20;;;17.10;39.40;;;;;;5008284;28;20448;-44
2021/05/07 10:32:32;;;;;;;3.37;3.17;;;17.00;38.70;;;;;;5013020;28;20428;-44
2021/05/07 10:34:58;;;;;;;3.50;3.20;;;16.50;38.20;;;;;;5011529;28;20458;-43
2021/05/07 10:37:45;;;;;;;3.40;3.20;;;16.20;38.50;;;;;;5007147;28;20472;-43
2021/05/07 10:40:24;;;;;;;4.03;3.10;;;16.00;37.80;;;;;;5010459;28;20798;-43
2021/05/07 10:42:57;;;;;;;3.40;2.97;;;15.80;37.90;;;;;;5008390;28;20436;-44
2021/05/07 10:45:40;;;;;;;3.53;3.20;;;15.90;38.20;;;;;;5006492;28;20444;-43
2021/05/07 10:48:16;;;;;;;6.30;3.27;;;16.20;38.50;;;;;;5012995;28;20440;-43
2021/05/07 10:50:43;;;;;;;3.17;2.90;;;16.00;37.70;;;;;;5013551;28;20578;-43
2021/05/07 10:53:09;;;;;;;3.83;3.00;;;15.90;38.10;;;;;;5006365;28;20453;-46
2021/05/07 10:55:35;;;;;;;3.60;3.30;;;15.50;38.80;;;;;;5006293;28;20449;-45
2021/05/07 10:58:01;;;;;;;3.30;2.90;;;15.20;37.70;;;;;;5004769;28;20225;-43
2021/05/07 11:00:39;;;;;;;3.00;2.80;;;14.70;37.50;;;;;;5014713;28;20493;-44
2021/05/07 11:03:16;;;;;;;3.37;3.07;;;14.40;38.20;;;;;;5009579;28;20943;-45
2021/05/07 11:05:47;;;;;;;3.03;2.80;;;14.60;39.50;;;;;;4999086;28;20433;-43
2021/05/07 11:08:13;;;;;;;3.97;2.90;;;15.10;40.00;;;;;;5008070;28;20449;-43
2021/05/07 11:10:38;;;;;;;3.80;3.50;;;15.10;38.90;;;;;;5011681;28;20452;-43
2021/05/07 11:13:09;;;;;;;3.90;3.60;;;15.50;39.50;;;;;;5004253;28;20190;-44
2021/05/07 11:15:34;;;;;;;3.70;3.13;;;15.50;38.90;;;;;;5008665;28;20281;-44
2021/05/07 11:18:10;;;;;;;2.90;2.70;;;15.20;36.90;;;;;;5012937;28;20563;-43
2021/05/07 11:20:41;;;;;;;3.60;3.30;;;15.20;37.60;;;;;;5022936;28;20201;-43
2021/05/07 11:23:11;;;;;;;3.70;3.40;;;15.20;37.70;;;;;;5016907;28;20440;-43
2021/05/07 11:25:39;;;;;;;3.40;3.10;;;15.50;39.20;;;;;;5000656;28;20532;-44
2021/05/07 11:28:18;;;;;;;3.40;3.10;;;15.90;38.10;;;;;;5010743;28;20490;-44
2021/05/07 11:30:57;;;;;;;3.67;3.37;;;16.20;38.50;;;;;;5011550;28;20444;-44
2021/05/07 11:33:25;;;;;;;3.33;3.03;;;16.50;37.30;;;;;;5010919;28;20468;-43
2021/05/07 11:36:06;;;;;;;3.93;3.20;;;16.90;38.50;;;;;;5010833;28;20527;-44
2021/05/07 11:38:32;;;;;;;5.03;2.50;;;17.10;36.90;;;;;;5004683;28;20503;-43
2021/05/07 11:40:57;;;;;;;3.70;2.60;;;17.30;36.20;;;;;;5006007;28;20441;-42
2021/05/07 11:43:26;;;;;;;3.97;3.17;;;17.10;34.70;;;;;;5009644;28;20433;-43
2021/05/07 11:46:06;;;;;;;2.80;2.60;;;17.40;36.10;;;;;;5013925;28;20186;-43
2021/05/07 11:48:33;;;;;;;3.47;2.80;;;17.90;36.40;;;;;;5017928;28;20872;-45
2021/05/07 11:51:06;;;;;;;3.30;3.00;;;17.70;32.90;;;;;;5023290;28;20437;-45
2021/05/07 11:53:33;;;;;;;3.60;2.93;;;17.50;34.10;;;;;;5006369;28;20495;-43
2021/05/07 11:55:59;;;;;;;2.73;2.53;;;17.50;33.10;;;;;;5012624;28;20501;-43
2021/05/07 11:58:36;;;;;;;3.00;2.80;;;17.30;33.40;;;;;;5019017;28;20879;-43
2021/05/07 12:01:06;;;;;;;5.00;2.70;;;16.90;33.30;;;;;;5016979;28;20262;-43
2021/05/07 12:03:42;;;;;;;3.20;2.90;;;16.80;33.30;;;;;;5010793;28;20436;-43
2021/05/07 12:06:25;;;;;;;2.33;2.13;;;16.70;34.10;;;;;;5012419;28;20475;-43
2021/05/07 12:08:52;;;;;;;2.60;2.40;;;16.90;34.60;;;;;;5011810;28;20927;-43
2021/05/07 12:11:18;;;;;;;3.03;2.73;;;16.70;33.70;;;;;;5010479;28;20790;-43
2021/05/07 12:13:47;;;;;;;2.67;2.47;;;16.70;34.20;;;;;;5010624;28;20425;-43
2021/05/07 12:16:15;;;;;;;2.80;2.60;;;16.80;34.50;;;;;;5012958;28;20941;-43
2021/05/07 12:18:52;;;;;;;3.30;2.57;;;16.90;35.10;;;;;;5010383;28;20570;-43
2021/05/07 12:21:18;;;;;;;2.83;2.60;;;17.30;35.40;;;;;;5017470;28;20439;-43
2021/05/07 12:23:45;;;;;;;4.37;3.33;;;17.00;33.40;;;;;;5024419;28;20752;-43
2021/05/07 12:26:11;;;;;;;3.23;3.03;;;16.50;32.40;;;;;;5015625;28;20194;-44
2021/05/07 12:28:38;;;;;;;2.90;2.60;;;16.30;33.10;;;;;;5001889;28;20450;-43
2021/05/07 12:31:06;;;;;;;2.60;2.40;;;16.30;33.40;;;;;;5005135;28;20441;-45
2021/05/07 12:33:34;;;;;;;3.93;2.40;;;16.50;34.30;;;;;;5004186;28;20495;-44
2021/05/07 12:36:00;;;;;;;2.80;2.50;;;16.30;32.80;;;;;;5008704;28;20529;-42
2021/05/07 12:38:37;;;;;;;2.70;2.50;;;16.20;33.80;;;;;;5007531;28;20654;-43
2021/05/07 12:41:05;;;;;;;2.70;2.50;;;16.00;34.00;;;;;;5012367;28;20198;-43
2021/05/07 12:43:34;;;;;;;2.73;2.53;;;15.90;34.50;;;;;;5000474;28;20807;-43
2021/05/07 12:46:00;;;;;;;5.30;2.90;;;15.60;36.00;;;;;;5012155;28;20491;-43
2021/05/07 12:48:25;;;;;;;3.27;2.97;;;15.80;36.70;;;;;;5010343;28;20445;-44
2021/05/07 12:50:51;;;;;;;4.03;2.90;;;15.80;37.30;;;;;;5012188;28;20424;-43
2021/05/07 12:53:19;;;;;;;3.67;3.37;;;15.80;37.50;;;;;;5018375;28;20269;-43